THY6805 LTAC-LTFO
Flight info
| Callsign | THY6805 |
|---|---|
| Flight time | 1h 2m |
| Altitude | 33000 |
| Route | LTAC/03L N0451F330 GURB1T GURBU UL615 SIV UW706 TBN UN37 ODZOL ODZO1B LTFO/06 |
| Aircraft | A321/M-CDT/C |
Departure
| Time | 2026-05-05 16:31 |
|---|---|
| Airport | Esenboğa International Airport (LTAC) |
Arrival
| Time | 2026-05-05 17:33 |
|---|---|
| Airport | Rize–Artvin Airport (LTFO) |
| Time | Latitude | Longitude | Altitude | Speed | Heading |
|---|---|---|---|---|---|
| 2026-05-05 16:14 | 40.12877 | 33.00258 | 3125 ft | 0 kts | 127° |
| 2026-05-05 16:25 | 40.12862 | 33.00264 | 3124 ft | 6 kts | 179° |
| 2026-05-05 16:25 | 40.12820 | 33.00198 | 3123 ft | 14 kts | 235° |
| 2026-05-05 16:26 | 40.12668 | 32.99969 | 3123 ft | 18 kts | 216° |
| 2026-05-05 16:26 | 40.12536 | 32.99707 | 3122 ft | 18 kts | 223° |
| 2026-05-05 16:27 | 40.12433 | 32.99603 | 3120 ft | 19 kts | 215° |
| 2026-05-05 16:27 | 40.12321 | 32.99500 | 3119 ft | 20 kts | 215° |
| 2026-05-05 16:27 | 40.12205 | 32.99389 | 3118 ft | 21 kts | 217° |
| 2026-05-05 16:27 | 40.12086 | 32.99272 | 3117 ft | 22 kts | 217° |
| 2026-05-05 16:28 | 40.11962 | 32.99151 | 3115 ft | 23 kts | 217° |
| 2026-05-05 16:28 | 40.11834 | 32.99028 | 3114 ft | 23 kts | 215° |
| 2026-05-05 16:28 | 40.11703 | 32.98905 | 3113 ft | 23 kts | 216° |
| 2026-05-05 16:28 | 40.11572 | 32.98781 | 3112 ft | 23 kts | 216° |
| 2026-05-05 16:29 | 40.11438 | 32.98657 | 3111 ft | 23 kts | 216° |
| 2026-05-05 16:29 | 40.11350 | 32.98510 | 3109 ft | 20 kts | 269° |
| 2026-05-05 16:29 | 40.11409 | 32.98372 | 3109 ft | 17 kts | 338° |
| 2026-05-05 16:29 | 40.11518 | 32.98422 | 3110 ft | 18 kts | 37° |
| 2026-05-05 16:30 | 40.11704 | 32.98597 | 3112 ft | 63 kts | 35° |
| 2026-05-05 16:30 | 40.12244 | 32.99112 | 3118 ft | 127 kts | 36° |
| 2026-05-05 16:30 | 40.13104 | 32.99940 | 3140 ft | 177 kts | 33° |
| 2026-05-05 16:30 | 40.14111 | 33.00920 | 3722 ft | 182 kts | 36° |
| 2026-05-05 16:31 | 40.15140 | 33.01969 | 4268 ft | 189 kts | 36° |
| 2026-05-05 16:31 | 40.16168 | 33.03025 | 4803 ft | 187 kts | 36° |
| 2026-05-05 16:31 | 40.17187 | 33.04066 | 5297 ft | 186 kts | 35° |
| 2026-05-05 16:31 | 40.18204 | 33.05099 | 5755 ft | 185 kts | 35° |
| 2026-05-05 16:32 | 40.19221 | 33.06128 | 6231 ft | 184 kts | 35° |
| 2026-05-05 16:32 | 40.20237 | 33.07155 | 6683 ft | 187 kts | 35° |
| 2026-05-05 16:32 | 40.21119 | 33.08474 | 7130 ft | 204 kts | 67° |
| 2026-05-05 16:32 | 40.21123 | 33.10357 | 7595 ft | 220 kts | 110° |
| 2026-05-05 16:33 | 40.20294 | 33.12105 | 8069 ft | 234 kts | 126° |
| 2026-05-05 16:33 | 40.19264 | 33.13831 | 8548 ft | 249 kts | 128° |
| 2026-05-05 16:33 | 40.18127 | 33.15648 | 9106 ft | 267 kts | 129° |
| 2026-05-05 16:33 | 40.16918 | 33.17564 | 9703 ft | 278 kts | 129° |
| 2026-05-05 16:34 | 40.15679 | 33.19543 | 10265 ft | 286 kts | 129° |
| 2026-05-05 16:34 | 40.14399 | 33.21618 | 10824 ft | 300 kts | 128° |
| 2026-05-05 16:34 | 40.13052 | 33.23827 | 11400 ft | 313 kts | 128° |
| 2026-05-05 16:34 | 40.11673 | 33.26102 | 11957 ft | 325 kts | 128° |
| 2026-05-05 16:35 | 40.10245 | 33.28462 | 12536 ft | 337 kts | 128° |
| 2026-05-05 16:35 | 40.08767 | 33.30905 | 13131 ft | 348 kts | 128° |
| 2026-05-05 16:35 | 40.07249 | 33.33420 | 13730 ft | 358 kts | 127° |
| 2026-05-05 16:35 | 40.05692 | 33.36001 | 14272 ft | 367 kts | 127° |
| 2026-05-05 16:36 | 40.04343 | 33.38856 | 14811 ft | 374 kts | 113° |
| 2026-05-05 16:36 | 40.03569 | 33.42122 | 15369 ft | 381 kts | 98° |
| 2026-05-05 16:36 | 40.03467 | 33.45602 | 15928 ft | 388 kts | 83° |
| 2026-05-05 16:36 | 40.04074 | 33.49046 | 16505 ft | 394 kts | 68° |
| 2026-05-05 16:37 | 40.05248 | 33.52313 | 17091 ft | 401 kts | 63° |
| 2026-05-05 16:37 | 40.06492 | 33.55600 | 17680 ft | 407 kts | 63° |
| 2026-05-05 16:37 | 40.07752 | 33.58943 | 18291 ft | 413 kts | 63° |
| 2026-05-05 16:37 | 40.09024 | 33.62324 | 18813 ft | 418 kts | 63° |
| 2026-05-05 16:38 | 40.10312 | 33.65751 | 19358 ft | 422 kts | 64° |
| 2026-05-05 16:38 | 40.11607 | 33.69208 | 19915 ft | 425 kts | 64° |
| 2026-05-05 16:38 | 40.12908 | 33.72690 | 20469 ft | 429 kts | 64° |
| 2026-05-05 16:38 | 40.14218 | 33.76198 | 21035 ft | 430 kts | 64° |
| 2026-05-05 16:39 | 40.15417 | 33.79782 | 21613 ft | 430 kts | 72° |
| 2026-05-05 16:39 | 40.16090 | 33.83577 | 22207 ft | 428 kts | 84° |
| 2026-05-05 16:39 | 40.16181 | 33.87445 | 22803 ft | 425 kts | 95° |
| 2026-05-05 16:39 | 40.15747 | 33.91256 | 23418 ft | 423 kts | 101° |
| 2026-05-05 16:40 | 40.15213 | 33.95033 | 23953 ft | 422 kts | 101° |
| 2026-05-05 16:40 | 40.14718 | 33.98803 | 24476 ft | 420 kts | 99° |
| 2026-05-05 16:40 | 40.14292 | 34.02580 | 25010 ft | 419 kts | 97° |
| 2026-05-05 16:40 | 40.13910 | 34.06335 | 25552 ft | 417 kts | 97° |
| 2026-05-05 16:41 | 40.13541 | 34.10098 | 25957 ft | 419 kts | 96° |
| 2026-05-05 16:41 | 40.13165 | 34.13889 | 26270 ft | 422 kts | 97° |
| 2026-05-05 16:41 | 40.12767 | 34.17758 | 26583 ft | 426 kts | 97° |
| 2026-05-05 16:41 | 40.12354 | 34.21607 | 26898 ft | 429 kts | 97° |
| 2026-05-05 16:42 | 40.12073 | 34.24168 | 27107 ft | 432 kts | 97° |
| 2026-05-05 16:42 | 40.11637 | 34.28065 | 27433 ft | 435 kts | 97° |
| 2026-05-05 16:42 | 40.11197 | 34.31978 | 27757 ft | 437 kts | 97° |
| 2026-05-05 16:42 | 40.10755 | 34.35923 | 28085 ft | 440 kts | 97° |
| 2026-05-05 16:43 | 40.10313 | 34.39886 | 28416 ft | 442 kts | 97° |
| 2026-05-05 16:43 | 40.09867 | 34.43864 | 28755 ft | 444 kts | 97° |
| 2026-05-05 16:43 | 40.09418 | 34.47862 | 29093 ft | 446 kts | 97° |
| 2026-05-05 16:43 | 40.08968 | 34.51872 | 29440 ft | 447 kts | 97° |
| 2026-05-05 16:44 | 40.08516 | 34.55900 | 29785 ft | 449 kts | 97° |
| 2026-05-05 16:44 | 40.08061 | 34.59934 | 30125 ft | 450 kts | 97° |
| 2026-05-05 16:44 | 40.07603 | 34.63986 | 30408 ft | 451 kts | 97° |
| 2026-05-05 16:44 | 40.07144 | 34.68046 | 30699 ft | 453 kts | 97° |
| 2026-05-05 16:45 | 40.06680 | 34.72115 | 30990 ft | 454 kts | 97° |
| 2026-05-05 16:45 | 40.06214 | 34.76188 | 31285 ft | 454 kts | 97° |
| 2026-05-05 16:45 | 40.05745 | 34.80267 | 31585 ft | 455 kts | 97° |
| 2026-05-05 16:45 | 40.05275 | 34.84348 | 31888 ft | 455 kts | 97° |
| 2026-05-05 16:46 | 40.04808 | 34.88419 | 32261 ft | 453 kts | 97° |
| 2026-05-05 16:46 | 40.04341 | 34.92484 | 32647 ft | 452 kts | 98° |
| 2026-05-05 16:46 | 40.03870 | 34.96535 | 32926 ft | 453 kts | 98° |
| 2026-05-05 16:46 | 40.03388 | 35.00656 | 32984 ft | 454 kts | 98° |
| 2026-05-05 16:47 | 40.02434 | 35.08810 | 32988 ft | 454 kts | 98° |
| 2026-05-05 16:47 | 40.01479 | 35.16953 | 32986 ft | 454 kts | 98° |
| 2026-05-05 16:48 | 40.00516 | 35.25094 | 32987 ft | 454 kts | 98° |
| 2026-05-05 16:48 | 39.99543 | 35.33242 | 32984 ft | 455 kts | 98° |
| 2026-05-05 16:49 | 39.98553 | 35.41386 | 32991 ft | 455 kts | 99° |
| 2026-05-05 16:49 | 39.97522 | 35.49532 | 32993 ft | 456 kts | 99° |
| 2026-05-05 16:50 | 39.96475 | 35.57683 | 32999 ft | 456 kts | 99° |
| 2026-05-05 16:50 | 39.95435 | 35.65848 | 32998 ft | 457 kts | 100° |
| 2026-05-05 16:51 | 39.94393 | 35.74017 | 33001 ft | 457 kts | 100° |
| 2026-05-05 16:51 | 39.93346 | 35.82205 | 32992 ft | 459 kts | 100° |
| 2026-05-05 16:52 | 39.92278 | 35.90419 | 32986 ft | 461 kts | 101° |
| 2026-05-05 16:52 | 39.91201 | 35.98658 | 32989 ft | 462 kts | 101° |
| 2026-05-05 16:53 | 39.90112 | 36.06970 | 33000 ft | 463 kts | 101° |
| 2026-05-05 16:53 | 39.89021 | 36.15191 | 33011 ft | 464 kts | 101° |
| 2026-05-05 16:54 | 39.87909 | 36.23516 | 33025 ft | 464 kts | 101° |
| 2026-05-05 16:54 | 39.86794 | 36.31786 | 33024 ft | 464 kts | 102° |
| 2026-05-05 16:55 | 39.86709 | 36.40130 | 33029 ft | 468 kts | 77° |
| 2026-05-05 16:55 | 39.89071 | 36.48035 | 33020 ft | 470 kts | 68° |
| 2026-05-05 16:56 | 39.91621 | 36.55879 | 33019 ft | 470 kts | 68° |
| 2026-05-05 16:56 | 39.94171 | 36.63730 | 33019 ft | 471 kts | 68° |
| 2026-05-05 16:57 | 39.96703 | 36.71599 | 33023 ft | 471 kts | 69° |
| 2026-05-05 16:57 | 39.99225 | 36.79477 | 33022 ft | 471 kts | 69° |
| 2026-05-05 16:58 | 40.01740 | 36.87370 | 33025 ft | 471 kts | 69° |
| 2026-05-05 16:58 | 40.04252 | 36.95268 | 33023 ft | 471 kts | 69° |
| 2026-05-05 16:59 | 40.06763 | 37.03187 | 33029 ft | 472 kts | 69° |
| 2026-05-05 16:59 | 40.09286 | 37.11157 | 33031 ft | 472 kts | 69° |
| 2026-05-05 17:00 | 40.11790 | 37.19082 | 33028 ft | 472 kts | 69° |
| 2026-05-05 17:00 | 40.14283 | 37.27025 | 33013 ft | 472 kts | 69° |
| 2026-05-05 17:01 | 40.16771 | 37.34982 | 33012 ft | 473 kts | 70° |
| 2026-05-05 17:01 | 40.19264 | 37.42959 | 33013 ft | 474 kts | 70° |
| 2026-05-05 17:02 | 40.21757 | 37.50935 | 33011 ft | 474 kts | 70° |
| 2026-05-05 17:02 | 40.24244 | 37.58917 | 33005 ft | 473 kts | 70° |
| 2026-05-05 17:03 | 40.26712 | 37.66889 | 33000 ft | 472 kts | 70° |
| 2026-05-05 17:03 | 40.29174 | 37.74854 | 32999 ft | 472 kts | 70° |
| 2026-05-05 17:04 | 40.31631 | 37.82828 | 32992 ft | 471 kts | 70° |
| 2026-05-05 17:04 | 40.34078 | 37.90794 | 32988 ft | 470 kts | 70° |
| 2026-05-05 17:05 | 40.35285 | 37.94715 | 32985 ft | 459 kts | 70° |
| 2026-05-05 17:05 | 40.36472 | 37.98586 | 32989 ft | 457 kts | 70° |
| 2026-05-05 17:05 | 40.38824 | 38.06313 | 32985 ft | 456 kts | 70° |
| 2026-05-05 17:06 | 40.41191 | 38.14102 | 32883 ft | 458 kts | 70° |
| 2026-05-05 17:06 | 40.42365 | 38.17967 | 32485 ft | 454 kts | 70° |
| 2026-05-05 17:06 | 40.43528 | 38.21797 | 32097 ft | 450 kts | 70° |
| 2026-05-05 17:07 | 40.44657 | 38.25520 | 31722 ft | 446 kts | 70° |
| 2026-05-05 17:07 | 40.45807 | 38.29313 | 31351 ft | 451 kts | 70° |
| 2026-05-05 17:07 | 40.46968 | 38.33149 | 31005 ft | 453 kts | 70° |
| 2026-05-05 17:07 | 40.48131 | 38.36995 | 30664 ft | 452 kts | 70° |
| 2026-05-05 17:08 | 40.49285 | 38.40821 | 30330 ft | 449 kts | 70° |
| 2026-05-05 17:08 | 40.50426 | 38.44623 | 29979 ft | 446 kts | 70° |
| 2026-05-05 17:08 | 40.51559 | 38.48399 | 29568 ft | 443 kts | 70° |
| 2026-05-05 17:08 | 40.52686 | 38.52157 | 29165 ft | 440 kts | 70° |
| 2026-05-05 17:09 | 40.53806 | 38.55888 | 28776 ft | 438 kts | 70° |
| 2026-05-05 17:09 | 40.54917 | 38.59600 | 28376 ft | 435 kts | 70° |
| 2026-05-05 17:09 | 40.56021 | 38.63293 | 27990 ft | 433 kts | 70° |
| 2026-05-05 17:09 | 40.57120 | 38.66970 | 27618 ft | 431 kts | 70° |
| 2026-05-05 17:10 | 40.58212 | 38.70626 | 27245 ft | 428 kts | 70° |
| 2026-05-05 17:10 | 40.59294 | 38.74264 | 26862 ft | 426 kts | 70° |
| 2026-05-05 17:10 | 40.60368 | 38.77891 | 26503 ft | 424 kts | 70° |
| 2026-05-05 17:10 | 40.61436 | 38.81498 | 26144 ft | 422 kts | 70° |
| 2026-05-05 17:11 | 40.62500 | 38.85084 | 25787 ft | 420 kts | 70° |
| 2026-05-05 17:11 | 40.63559 | 38.88660 | 25446 ft | 418 kts | 70° |
| 2026-05-05 17:11 | 40.64774 | 38.92127 | 25102 ft | 417 kts | 63° |
| 2026-05-05 17:11 | 40.66132 | 38.95487 | 24747 ft | 415 kts | 63° |
| 2026-05-05 17:12 | 40.67482 | 38.98840 | 24384 ft | 413 kts | 63° |
| 2026-05-05 17:12 | 40.68839 | 39.02218 | 24018 ft | 411 kts | 63° |
| 2026-05-05 17:12 | 40.70173 | 39.05541 | 23662 ft | 409 kts | 63° |
| 2026-05-05 17:12 | 40.71498 | 39.08835 | 23256 ft | 406 kts | 63° |
| 2026-05-05 17:13 | 40.72819 | 39.12120 | 22841 ft | 404 kts | 63° |
| 2026-05-05 17:13 | 40.74125 | 39.15380 | 22427 ft | 401 kts | 63° |
| 2026-05-05 17:13 | 40.75420 | 39.18619 | 22019 ft | 398 kts | 63° |
| 2026-05-05 17:13 | 40.76705 | 39.21841 | 21619 ft | 396 kts | 63° |
| 2026-05-05 17:14 | 40.77979 | 39.25037 | 21225 ft | 393 kts | 63° |
| 2026-05-05 17:14 | 40.79245 | 39.28218 | 20834 ft | 390 kts | 63° |
| 2026-05-05 17:14 | 40.80077 | 39.30312 | 20579 ft | 387 kts | 63° |
| 2026-05-05 17:14 | 40.81323 | 39.33443 | 20192 ft | 383 kts | 63° |
| 2026-05-05 17:15 | 40.82554 | 39.36529 | 19838 ft | 377 kts | 63° |
| 2026-05-05 17:15 | 40.83766 | 39.39573 | 19480 ft | 371 kts | 63° |
| 2026-05-05 17:15 | 40.84956 | 39.42567 | 19138 ft | 366 kts | 63° |
| 2026-05-05 17:15 | 40.86128 | 39.45522 | 18798 ft | 360 kts | 63° |
| 2026-05-05 17:16 | 40.87281 | 39.48431 | 18467 ft | 355 kts | 63° |
| 2026-05-05 17:16 | 40.88418 | 39.51301 | 18100 ft | 350 kts | 64° |
| 2026-05-05 17:16 | 40.89537 | 39.54134 | 17717 ft | 345 kts | 64° |
| 2026-05-05 17:16 | 40.90639 | 39.56933 | 17344 ft | 342 kts | 64° |
| 2026-05-05 17:17 | 40.91732 | 39.59709 | 16969 ft | 339 kts | 64° |
| 2026-05-05 17:17 | 40.92818 | 39.62469 | 16605 ft | 337 kts | 64° |
| 2026-05-05 17:17 | 40.93912 | 39.65248 | 16240 ft | 335 kts | 64° |
| 2026-05-05 17:17 | 40.94984 | 39.67976 | 15876 ft | 333 kts | 64° |
| 2026-05-05 17:18 | 40.96049 | 39.70687 | 15519 ft | 330 kts | 64° |
| 2026-05-05 17:18 | 40.97101 | 39.73370 | 15177 ft | 326 kts | 64° |
| 2026-05-05 17:18 | 40.98137 | 39.76018 | 14890 ft | 321 kts | 64° |
| 2026-05-05 17:18 | 40.99156 | 39.78623 | 14597 ft | 316 kts | 64° |
| 2026-05-05 17:19 | 41.00140 | 39.81202 | 14306 ft | 312 kts | 66° |
| 2026-05-05 17:19 | 41.01056 | 39.83785 | 14014 ft | 308 kts | 67° |
| 2026-05-05 17:19 | 41.01930 | 39.86345 | 13742 ft | 303 kts | 68° |
| 2026-05-05 17:19 | 41.02784 | 39.88879 | 13436 ft | 299 kts | 68° |
| 2026-05-05 17:20 | 41.03626 | 39.91374 | 13147 ft | 295 kts | 68° |
| 2026-05-05 17:20 | 41.04460 | 39.93832 | 12858 ft | 291 kts | 68° |
| 2026-05-05 17:20 | 41.05287 | 39.96261 | 12568 ft | 287 kts | 67° |
| 2026-05-05 17:20 | 41.06104 | 39.98652 | 12329 ft | 282 kts | 68° |
| 2026-05-05 17:21 | 41.06906 | 40.00996 | 12098 ft | 277 kts | 67° |
| 2026-05-05 17:21 | 41.07694 | 40.03298 | 11868 ft | 272 kts | 67° |
| 2026-05-05 17:21 | 41.08466 | 40.05557 | 11637 ft | 267 kts | 68° |
| 2026-05-05 17:22 | 41.09991 | 40.10032 | 11014 ft | 267 kts | 68° |
| 2026-05-05 17:22 | 41.10756 | 40.12277 | 10663 ft | 267 kts | 68° |
| 2026-05-05 17:22 | 41.11524 | 40.14526 | 10324 ft | 268 kts | 67° |
| 2026-05-05 17:22 | 41.12294 | 40.16781 | 9991 ft | 268 kts | 67° |
| 2026-05-05 17:23 | 41.13056 | 40.19020 | 9702 ft | 266 kts | 68° |
| 2026-05-05 17:23 | 41.13812 | 40.21245 | 9403 ft | 263 kts | 68° |
| 2026-05-05 17:23 | 41.14558 | 40.23446 | 9115 ft | 261 kts | 67° |
| 2026-05-05 17:23 | 41.15296 | 40.25631 | 8827 ft | 258 kts | 67° |
| 2026-05-05 17:24 | 41.16028 | 40.27794 | 8540 ft | 256 kts | 67° |
| 2026-05-05 17:24 | 41.16750 | 40.29937 | 8265 ft | 252 kts | 67° |
| 2026-05-05 17:24 | 41.17466 | 40.32059 | 7992 ft | 246 kts | 67° |
| 2026-05-05 17:24 | 41.18157 | 40.34107 | 7712 ft | 241 kts | 67° |
| 2026-05-05 17:25 | 41.18836 | 40.36117 | 7446 ft | 236 kts | 67° |
| 2026-05-05 17:25 | 41.19230 | 40.37449 | 7260 ft | 233 kts | 76° |
| 2026-05-05 17:25 | 41.19423 | 40.40241 | 6896 ft | 225 kts | 98° |
| 2026-05-05 17:25 | 41.19062 | 40.42233 | 6628 ft | 221 kts | 113° |
| 2026-05-05 17:26 | 41.18329 | 40.43989 | 6359 ft | 216 kts | 129° |
| 2026-05-05 17:26 | 41.17384 | 40.45463 | 6103 ft | 211 kts | 132° |
| 2026-05-05 17:26 | 41.16439 | 40.46919 | 5840 ft | 206 kts | 131° |
| 2026-05-05 17:26 | 41.15514 | 40.48346 | 5585 ft | 202 kts | 131° |
| 2026-05-05 17:27 | 41.14607 | 40.49742 | 5335 ft | 198 kts | 130° |
| 2026-05-05 17:27 | 41.13712 | 40.51118 | 5078 ft | 195 kts | 130° |
| 2026-05-05 17:27 | 41.12827 | 40.52476 | 4829 ft | 194 kts | 130° |
| 2026-05-05 17:27 | 41.11952 | 40.53824 | 4553 ft | 193 kts | 129° |
| 2026-05-05 17:28 | 41.11276 | 40.55335 | 4316 ft | 190 kts | 108° |
| 2026-05-05 17:28 | 41.11023 | 40.57035 | 4057 ft | 188 kts | 89° |
| 2026-05-05 17:28 | 41.11199 | 40.58734 | 3804 ft | 186 kts | 71° |
| 2026-05-05 17:28 | 41.11627 | 40.60343 | 3550 ft | 184 kts | 70° |
| 2026-05-05 17:29 | 41.12036 | 40.61908 | 3354 ft | 173 kts | 70° |
| 2026-05-05 17:29 | 41.12410 | 40.63349 | 3185 ft | 157 kts | 70° |
| 2026-05-05 17:29 | 41.12756 | 40.64682 | 2988 ft | 150 kts | 70° |
| 2026-05-05 17:29 | 41.13092 | 40.65978 | 2749 ft | 147 kts | 70° |
| 2026-05-05 17:30 | 41.13423 | 40.67254 | 2520 ft | 146 kts | 71° |
| 2026-05-05 17:30 | 41.13753 | 40.68525 | 2284 ft | 145 kts | 71° |
| 2026-05-05 17:30 | 41.14082 | 40.69794 | 2026 ft | 146 kts | 71° |
| 2026-05-05 17:30 | 41.14415 | 40.71081 | 1768 ft | 146 kts | 71° |
| 2026-05-05 17:31 | 41.14745 | 40.72354 | 1502 ft | 146 kts | 71° |
| 2026-05-05 17:31 | 41.15075 | 40.73627 | 1201 ft | 146 kts | 71° |
| 2026-05-05 17:31 | 41.15403 | 40.74900 | 936 ft | 146 kts | 70° |
| 2026-05-05 17:31 | 41.15733 | 40.76178 | 793 ft | 147 kts | 70° |
| 2026-05-05 17:32 | 41.16066 | 40.77467 | 684 ft | 148 kts | 70° |
| 2026-05-05 17:32 | 41.16399 | 40.78756 | 590 ft | 148 kts | 70° |
| 2026-05-05 17:32 | 41.16732 | 40.80047 | 453 ft | 148 kts | 70° |
| 2026-05-05 17:32 | 41.17065 | 40.81333 | 300 ft | 147 kts | 70° |
| 2026-05-05 17:33 | 41.17401 | 40.82618 | 126 ft | 148 kts | 69° |
| 2026-05-05 17:33 | 41.17729 | 40.83884 | 110 ft | 140 kts | 71° |
| 2026-05-05 17:33 | 41.17989 | 40.84873 | 60 ft | 58 kts | 71° |
| 2026-05-05 17:33 | 41.18027 | 40.85027 | 57 ft | 8 kts | 71° |